Time;durP1;ratioP1;P1;durP2;ratioP2;P2;SDS_P1;SDS_P2;PMS_P1;PMS_P2;Temp;Humidity;BMP_temperature;BMP_pressure;BME280_temperature;BME280_humidity;BME280_pressure;Samples;Min_cycle;Max_cycle;Signal;HPM_P1;HPM_P2
2021/12/04 00:00:51;;;;;;;42.25;20.17;;;;;;;;;;5057220;28;20166;-66
2021/12/04 00:03:17;;;;;;;36.92;20.48;;;;;;;;;;5075360;28;20028;-65
2021/12/04 00:05:51;;;;;;;40.40;20.25;;;;;;;;;;5075292;28;20032;-64
2021/12/04 00:08:18;;;;;;;45.08;21.70;;;;;;;;;;5073353;28;20041;-64
2021/12/04 00:10:44;;;;;;;48.45;23.70;;;;;;;;;;5055859;28;20024;-66
2021/12/04 00:13:10;;;;;;;56.20;24.77;;;;;;;;;;5075157;28;20060;-64
2021/12/04 00:15:36;;;;;;;48.65;23.92;;;;;;;;;;5075142;28;20543;-68
2021/12/04 00:18:02;;;;;;;52.35;25.70;;;;;;;;;;5057111;28;20042;-67
2021/12/04 00:20:32;;;;;;;48.45;22.52;;;;;;;;;;5057095;28;20438;-65
2021/12/04 00:22:59;;;;;;;43.80;22.58;;;;;;;;;;5057057;28;20052;-66
2021/12/04 00:25:26;;;;;;;46.78;23.77;;;;;;;;;;5074055;28;20025;-64
2021/12/04 00:27:53;;;;;;;56.92;26.45;;;;;;;;;;5074857;28;20025;-66
2021/12/04 00:30:19;;;;;;;58.47;27.95;;;;;;;;;;5074898;28;20645;-65
2021/12/04 00:32:55;;;;;;;63.13;28.98;;;;;;;;;;5074820;28;20020;-65
2021/12/04 00:35:46;;;;;;;65.22;32.25;;;;;;;;;;5074741;28;20461;-65
2021/12/04 00:51:38;;;;;;;62.97;30.33;;;;;;;;;;5073965;28;20144;-65
2021/12/04 00:54:05;;;;;;;63.47;29.67;;;;;;;;;;5074546;28;20104;-64
2021/12/04 00:56:32;;;;;;;58.08;28.17;;;;;;;;;;5056389;28;20032;-64
2021/12/04 00:58:59;;;;;;;53.10;26.23;;;;;;;;;;5056277;28;20124;-65
2021/12/04 01:01:30;;;;;;;60.55;26.88;;;;;;;;;;5074196;28;20369;-66
2021/12/04 01:03:57;;;;;;;61.50;26.92;;;;;;;;;;5074195;28;20028;-65
2021/12/04 01:06:23;;;;;;;59.08;28.38;;;;;;;;;;5074054;28;20028;-65
2021/12/04 01:08:49;;;;;;;56.80;27.38;;;;;;;;;;5073701;28;20043;-65
2021/12/04 01:11:16;;;;;;;57.78;28.63;;;;;;;;;;5074024;28;20107;-66
2021/12/04 01:13:42;;;;;;;56.35;27.17;;;;;;;;;;5056013;28;20123;-66
2021/12/04 01:16:11;;;;;;;52.05;27.25;;;;;;;;;;5055930;28;20119;-66
2021/12/04 01:18:37;;;;;;;55.50;26.98;;;;;;;;;;5055920;28;20028;-68
2021/12/04 01:21:04;;;;;;;55.47;28.50;;;;;;;;;;5055933;28;20025;-66
2021/12/04 01:23:30;;;;;;;64.72;30.20;;;;;;;;;;5073754;28;20029;-65
2021/12/04 01:25:57;;;;;;;65.75;30.65;;;;;;;;;;5073699;28;20496;-67
2021/12/04 01:28:23;;;;;;;68.22;30.27;;;;;;;;;;5073638;28;20456;-65
2021/12/04 01:30:51;;;;;;;53.53;27.27;;;;;;;;;;5073691;28;20029;-66
2021/12/04 01:33:18;;;;;;;60.90;28.33;;;;;;;;;;5073299;28;20466;-66
2021/12/04 01:35:44;;;;;;;49.60;26.33;;;;;;;;;;5073284;28;20028;-68
2021/12/04 01:38:10;;;;;;;51.92;26.90;;;;;;;;;;5073620;28;20392;-66
2021/12/04 01:40:37;;;;;;;49.97;25.38;;;;;;;;;;5073583;28;20504;-65
2021/12/04 01:43:03;;;;;;;56.60;27.27;;;;;;;;;;5055446;28;20102;-66
2021/12/04 01:45:29;;;;;;;49.88;25.58;;;;;;;;;;5073439;28;20028;-66
2021/12/04 01:48:00;;;;;;;54.45;25.85;;;;;;;;;;5073347;28;20032;-68
2021/12/04 01:50:27;;;;;;;44.85;25.02;;;;;;;;;;5073328;28;20033;-65
2021/12/04 01:52:59;;;;;;;50.28;24.08;;;;;;;;;;5072900;28;20092;-66
2021/12/04 01:55:30;;;;;;;41.55;23.08;;;;;;;;;;5073344;28;20052;-66
2021/12/04 01:57:57;;;;;;;53.33;25.27;;;;;;;;;;5073000;28;20524;-65
2021/12/04 02:00:24;;;;;;;61.17;29.33;;;;;;;;;;5073414;28;20108;-66
2021/12/04 02:02:50;;;;;;;48.47;25.08;;;;;;;;;;5055231;28;20032;-66
2021/12/04 02:05:16;;;;;;;57.80;28.60;;;;;;;;;;5055130;28;20032;-65
2021/12/04 02:07:42;;;;;;;53.28;26.80;;;;;;;;;;5073134;28;20526;-67
2021/12/04 02:10:09;;;;;;;51.50;24.80;;;;;;;;;;5073024;28;20037;-66
2021/12/04 02:12:35;;;;;;;47.55;24.52;;;;;;;;;;5055161;28;20021;-66
2021/12/04 02:15:02;;;;;;;52.30;27.85;;;;;;;;;;5072809;28;20108;-65
2021/12/04 02:17:29;;;;;;;51.38;26.20;;;;;;;;;;5073021;28;20376;-68
2021/12/04 02:19:55;;;;;;;57.30;27.08;;;;;;;;;;5073004;28;20492;-66
2021/12/04 02:22:23;;;;;;;50.13;26.80;;;;;;;;;;5073041;28;20028;-66
2021/12/04 02:24:49;;;;;;;49.95;27.13;;;;;;;;;;5072978;28;20020;-66
2021/12/04 02:27:16;;;;;;;56.53;29.30;;;;;;;;;;5054918;28;20063;-65
2021/12/04 02:29:49;;;;;;;58.75;29.95;;;;;;;;;;5072843;28;20071;-65
2021/12/04 02:32:16;;;;;;;57.45;29.27;;;;;;;;;;5072977;28;20020;-65
2021/12/04 02:34:42;;;;;;;60.72;30.23;;;;;;;;;;5072551;28;20411;-64
2021/12/04 02:37:09;;;;;;;56.05;27.60;;;;;;;;;;5054834;28;20524;-65
2021/12/04 02:39:37;;;;;;;57.55;28.73;;;;;;;;;;5072818;28;20086;-65
2021/12/04 02:42:07;;;;;;;70.05;31.92;;;;;;;;;;5072859;28;20032;-64
2021/12/04 02:44:38;;;;;;;56.00;27.10;;;;;;;;;;5072752;28;20033;-67
2021/12/04 02:47:04;;;;;;;50.60;23.73;;;;;;;;;;5072803;28;20034;-65
2021/12/04 02:49:31;;;;;;;53.22;22.77;;;;;;;;;;5075390;28;20037;-64
2021/12/04 02:52:01;;;;;;;42.55;23.15;;;;;;;;;;5076681;28;20492;-65
2021/12/04 02:54:27;;;;;;;42.50;22.65;;;;;;;;;;5076671;28;20051;-66
2021/12/04 02:56:53;;;;;;;47.05;22.50;;;;;;;;;;5076374;28;20060;-66
2021/12/04 02:59:23;;;;;;;45.47;21.83;;;;;;;;;;5076596;28;20044;-65
2021/12/04 03:01:53;;;;;;;56.85;25.45;;;;;;;;;;5076585;28;20035;-65
2021/12/04 03:04:21;;;;;;;55.53;26.58;;;;;;;;;;5076487;28;20020;-67
2021/12/04 03:06:47;;;;;;;49.55;23.98;;;;;;;;;;5076406;28;20024;-66
2021/12/04 03:09:14;;;;;;;43.42;19.70;;;;;;;;;;5076329;28;20055;-65
2021/12/04 03:11:41;;;;;;;39.38;20.08;;;;;;;;;;5076378;28;20028;-68
2021/12/04 03:14:07;;;;;;;42.55;19.77;;;;;;;;;;5076283;28;20020;-65
2021/12/04 03:16:34;;;;;;;37.25;18.23;;;;;;;;;;5076216;28;20028;-64
2021/12/04 03:19:01;;;;;;;36.28;18.95;;;;;;;;;;5076176;28;20052;-65
2021/12/04 03:21:27;;;;;;;30.58;16.65;;;;;;;;;;5058215;28;20091;-65
2021/12/04 03:26:20;;;;;;;36.40;16.70;;;;;;;;;;5076062;28;20097;-64
2021/12/04 03:28:46;;;;;;;34.63;17.67;;;1.90;99.90;;;;;;5075884;28;20036;-65
2021/12/04 03:31:18;;;;;;;32.22;16.90;;;1.90;99.90;;;;;;5076049;28;20028;-65
2021/12/04 03:41:56;;;;;;;30.42;16.23;;;1.80;99.90;;;;;;5075591;28;20446;-64
2021/12/04 03:44:22;;;;;;;34.47;17.00;;;1.90;99.90;;;;;;5075721;28;20107;-65
2021/12/04 03:46:48;;;;;;;35.50;17.52;;;1.90;99.90;;;;;;5075633;28;20035;-64
2021/12/04 03:49:15;;;;;;;31.75;15.95;;;2.00;99.90;;;;;;5075595;28;20036;-65
2021/12/04 03:51:41;;;;;;;31.67;15.95;;;2.00;99.90;;;;;;5075249;28;20055;-64
2021/12/04 03:54:07;;;;;;;36.03;16.00;;;2.00;99.90;;;;;;5075851;28;20021;-65
2021/12/04 03:56:35;;;;;;;33.35;16.48;;;2.00;99.90;;;;;;5057535;28;20029;-64
2021/12/04 03:59:01;;;;;;;37.83;16.80;;;2.00;99.90;;;;;;5075283;28;20024;-65
2021/12/04 04:01:28;;;;;;;31.95;16.15;;;2.00;99.90;;;;;;5074302;28;20477;-65
2021/12/04 04:03:54;;;;;;;34.85;18.17;;;2.00;99.90;;;;;;5057389;28;20031;-65
2021/12/04 04:06:19;;;;;;;34.92;16.70;;;2.10;99.90;;;;;;5057351;28;20051;-65
2021/12/04 04:08:45;;;;;;;33.28;16.80;;;2.10;99.90;;;;;;5075211;28;20037;-64
2021/12/04 04:11:11;;;;;;;36.53;17.02;;;2.20;99.90;;;;;;5075179;28;20024;-65
2021/12/04 04:13:43;;;;;;;32.75;17.75;;;2.20;99.90;;;;;;5075260;28;20431;-64
2021/12/04 04:16:09;;;;;;;35.20;17.55;;;2.30;99.90;;;;;;5075249;28;20104;-64
2021/12/04 04:18:50;;;;;;;36.75;17.88;;;2.30;99.90;;;;;;5075082;28;20464;-66
2021/12/04 04:21:16;;;;;;;32.80;17.60;;;2.30;99.90;;;;;;5075130;28;20027;-65
2021/12/04 04:23:41;;;;;;;40.35;19.77;;;2.30;99.90;;;;;;5075365;28;20115;-64
2021/12/04 04:26:07;;;;;;;35.83;18.60;;;2.20;99.90;;;;;;5074916;28;20031;-65
2021/12/04 04:28:33;;;;;;;38.35;19.23;;;2.20;99.90;;;;;;5074876;28;20037;-64
2021/12/04 04:30:59;;;;;;;35.25;18.90;;;2.20;99.90;;;;;;5074858;28;20047;-63
2021/12/04 04:33:25;;;;;;;38.92;19.52;;;2.30;99.90;;;;;;5056875;28;20441;-65
2021/12/04 04:36:07;;;;;;;38.90;19.15;;;2.30;99.90;;;;;;5074782;28;20032;-64
2021/12/04 04:39:11;;;;;;;37.47;19.80;;;2.30;99.90;;;;;;5056812;28;20029;-64
2021/12/04 05:11:37;;;;;;;49.70;26.20;;;2.40;99.90;;;;;;5073368;28;20113;-63
2021/12/04 05:14:05;;;;;;;60.40;29.38;;;2.30;99.90;;;;;;5073966;28;20032;-63
2021/12/04 05:16:42;;;;;;;59.50;29.08;;;2.30;99.90;;;;;;5071193;28;20025;-63
2021/12/04 05:21:54;;;;;;;49.88;25.83;;;2.40;99.90;;;;;;5073737;28;20036;-63
2021/12/04 05:24:21;;;;;;;56.08;26.67;;;2.30;99.90;;;;;;5073734;28;20047;-63
2021/12/04 05:26:47;;;;;;;54.53;26.50;;;2.30;99.90;;;;;;5073660;28;20067;-63
2021/12/04 05:29:13;;;;;;;48.25;25.08;;;2.40;99.90;;;;;;5073471;28;20546;-63
2021/12/04 05:31:39;;;;;;;54.75;26.38;;;2.40;99.90;;;;;;5055457;28;20055;-63
2021/12/04 05:34:04;;;;;;;44.90;23.40;;;2.30;99.90;;;;;;5073832;28;20157;-62
2021/12/04 05:36:30;;;;;;;48.38;22.30;;;2.40;99.90;;;;;;5073433;28;20386;-64
2021/12/04 05:38:56;;;;;;;45.58;22.85;;;2.40;99.90;;;;;;5073690;28;20039;-63
2021/12/04 05:41:22;;;;;;;27.98;15.52;;;2.50;99.90;;;;;;5073056;28;20025;-63
2021/12/04 05:43:49;;;;;;;24.63;13.05;;;2.50;99.90;;;;;;5073287;28;20082;-63
2021/12/04 05:46:17;;;;;;;22.67;12.98;;;2.50;99.90;;;;;;5073324;28;20119;-64
2021/12/04 05:48:51;;;;;;;27.63;14.45;;;2.50;99.90;;;;;;5055206;28;20090;-63
2021/12/04 05:56:17;;;;;;;42.85;19.33;;;2.50;99.90;;;;;;5073213;28;20376;-62
2021/12/04 05:58:43;;;;;;;42.72;19.83;;;2.50;99.90;;;;;;5073506;28;20119;-63
2021/12/04 06:01:10;;;;;;;42.13;18.63;;;2.50;99.90;;;;;;5072694;28;20059;-63
2021/12/04 06:03:36;;;;;;;35.17;18.33;;;2.50;99.90;;;;;;5073074;28;20030;-64
2021/12/04 06:06:03;;;;;;;36.40;18.58;;;2.60;99.90;;;;;;5055102;28;20628;-64
2021/12/04 06:08:30;;;;;;;35.17;17.75;;;2.50;99.90;;;;;;5072984;28;20472;-63
2021/12/04 06:10:57;;;;;;;54.08;26.55;;;2.40;99.90;;;;;;5072963;28;20116;-63
2021/12/04 06:13:23;;;;;;;48.15;24.88;;;2.30;99.90;;;;;;5073027;28;20108;-63
2021/12/04 06:15:50;;;;;;;47.35;23.92;;;2.40;99.90;;;;;;5072902;28;20034;-63
2021/12/04 06:18:16;;;;;;;34.92;18.30;;;2.40;99.90;;;;;;5072916;28;20021;-63
2021/12/04 06:23:28;;;;;;;45.40;24.00;;;2.40;99.90;;;;;;5072106;28;20028;-63
2021/12/04 06:25:53;;;;;;;56.90;27.02;;;2.30;99.90;;;;;;5072787;28;20400;-64
2021/12/04 06:28:20;;;;;;;82.90;38.55;;;2.20;99.90;;;;;;5072992;28;20032;-63
2021/12/04 06:30:47;;;;;;;84.03;38.30;;;2.20;99.90;;;;;;5073139;28;20033;-64
2021/12/04 06:33:17;;;;;;;83.82;42.75;;;2.10;99.90;;;;;;5054761;28;20025;-63
2021/12/04 06:35:46;;;;;;;82.45;38.15;;;2.20;99.90;;;;;;5072627;28;20020;-63
2021/12/04 06:38:13;;;;;;;65.40;31.23;;;2.10;99.90;;;;;;5054697;28;20036;-63
2021/12/04 06:40:40;;;;;;;77.05;33.65;;;2.00;99.90;;;;;;5072757;28;20025;-63
2021/12/04 06:43:06;;;;;;;63.22;29.38;;;2.10;99.90;;;;;;5072966;28;20051;-64
2021/12/04 06:45:36;;;;;;;70.10;29.20;;;2.10;99.90;;;;;;5054463;28;20119;-64
2021/12/04 06:48:07;;;;;;;81.22;30.67;;;2.20;99.90;;;;;;5072633;28;20039;-64
2021/12/04 06:53:17;;;;;;;77.72;35.60;;;2.30;99.90;;;;;;5072126;28;20048;-64
2021/12/04 06:55:47;;;;;;;79.88;35.13;;;2.30;99.90;;;;;;5072233;28;20065;-63
2021/12/04 06:58:13;;;;;;;88.15;41.00;;;2.40;99.90;;;;;;5072347;28;20111;-63
2021/12/04 07:00:39;;;;;;;111.40;47.63;;;2.50;99.90;;;;;;5072468;28;20029;-64
2021/12/04 07:03:05;;;;;;;102.05;45.38;;;2.60;99.90;;;;;;5072496;28;20032;-64
2021/12/04 07:05:31;;;;;;;116.65;47.17;;;2.60;99.90;;;;;;5072072;28;20159;-64
2021/12/04 07:07:57;;;;;;;80.10;38.40;;;2.70;99.90;;;;;;5072403;28;20090;-64
2021/12/04 07:10:23;;;;;;;80.45;37.42;;;2.70;99.90;;;;;;5054307;28;20431;-64
2021/12/04 07:12:49;;;;;;;74.85;35.60;;;2.80;99.90;;;;;;5072369;28;20028;-64
2021/12/04 07:15:15;;;;;;;89.80;42.40;;;2.80;99.90;;;;;;5053414;28;20116;-65
2021/12/04 07:17:41;;;;;;;55.72;28.35;;;2.70;99.90;;;;;;5071897;28;20036;-63
2021/12/04 07:20:10;;;;;;;46.08;23.95;;;2.70;99.90;;;;;;5071674;28;20029;-63
2021/12/04 07:22:36;;;;;;;54.17;24.05;;;2.80;99.90;;;;;;5054024;28;20028;-64
2021/12/04 07:25:04;;;;;;;54.88;25.63;;;2.80;99.90;;;;;;5072203;28;20411;-63
2021/12/04 07:27:30;;;;;;;61.42;29.38;;;2.80;99.90;;;;;;5071789;28;20732;-64
2021/12/04 07:29:56;;;;;;;67.88;33.70;;;2.90;99.90;;;;;;5072139;28;20067;-63
2021/12/04 07:32:24;;;;;;;73.65;37.67;;;2.90;99.90;;;;;;5072545;28;20056;-64
2021/12/04 07:34:50;;;;;;;93.13;48.08;;;3.00;99.90;;;;;;5073677;28;20094;-63
2021/12/04 07:37:16;;;;;;;101.75;49.65;;;3.00;99.90;;;;;;5075451;28;20020;-63
2021/12/04 07:39:42;;;;;;;106.93;50.35;;;3.00;99.90;;;;;;5075852;28;20029;-65
2021/12/04 07:42:08;;;;;;;83.32;42.55;;;3.10;99.90;;;;;;5057577;28;20077;-63
2021/12/04 07:44:34;;;;;;;64.57;36.47;;;3.10;99.90;;;;;;5075630;28;20745;-64
2021/12/04 07:47:00;;;;;;;68.90;35.53;;;3.20;99.90;;;;;;5075262;28;20040;-63
2021/12/04 07:50:10;;;;;;;72.18;35.42;;;3.30;99.90;;;;;;5075336;28;20089;-63
2021/12/04 07:52:37;;;;;;;69.25;34.63;;;3.40;99.90;;;;;;5075049;28;20147;-64
2021/12/04 07:55:05;;;;;;;63.83;33.35;;;3.50;99.90;;;;;;5057326;28;20361;-63
2021/12/04 07:57:31;;;;;;;79.75;37.15;;;3.50;99.90;;;;;;5075205;28;20423;-65
2021/12/04 07:59:57;;;;;;;77.03;34.92;;;3.60;99.90;;;;;;5075146;28;20032;-65
2021/12/04 08:02:23;;;;;;;78.97;38.47;;;3.70;99.90;;;;;;5074012;28;20520;-64
2021/12/04 08:04:49;;;;;;;68.78;33.17;;;3.90;99.90;;;;;;5073948;28;20050;-64
2021/12/04 08:07:14;;;;;;;72.07;35.30;;;4.00;99.90;;;;;;5074369;28;20484;-63
2021/12/04 08:09:40;;;;;;;93.07;44.63;;;4.00;99.90;;;;;;5056833;28;20044;-66
2021/12/04 08:12:07;;;;;;;126.95;54.60;;;4.00;99.90;;;;;;5074934;28;20040;-64
2021/12/04 08:14:33;;;;;;;105.45;50.55;;;4.00;99.90;;;;;;5074905;28;20020;-64
2021/12/04 08:16:59;;;;;;;95.15;45.58;;;4.00;99.90;;;;;;5074866;28;20036;-63
2021/12/04 08:19:24;;;;;;;107.50;50.83;;;4.00;99.90;;;;;;5074940;28;20089;-63
2021/12/04 08:21:50;;;;;;;102.28;47.60;;;4.10;99.90;;;;;;5072470;28;20021;-65
2021/12/04 08:24:16;;;;;;;91.28;42.75;;;4.20;99.90;;;;;;5084442;28;20115;-64
2021/12/04 08:26:44;;;;;;;85.03;38.97;;;4.30;99.90;;;;;;5074831;28;20089;-67
2021/12/04 08:29:10;;;;;;;84.28;38.70;;;;;;;;;;5074680;28;20419;-66
2021/12/04 08:31:37;;;;;;;75.18;38.25;;;4.30;99.90;;;;;;5074050;28;20112;-66
2021/12/04 08:34:03;;;;;;;73.78;34.97;;;4.30;99.90;;;;;;5074184;28;20442;-63
2021/12/04 08:36:28;;;;;;;81.85;39.08;;;4.30;99.90;;;;;;5074341;28;20071;-64
2021/12/04 08:38:54;;;;;;;111.90;54.42;;;4.30;99.90;;;;;;5074195;28;20036;-66
2021/12/04 08:41:21;;;;;;;140.00;69.25;;;4.50;99.90;;;;;;5074129;28;20055;-64
2021/12/04 08:43:47;;;;;;;86.10;43.33;;;4.60;99.90;;;;;;5056353;28;20448;-63
2021/12/04 08:46:14;;;;;;;66.30;34.03;;;4.60;99.90;;;;;;5073394;28;20021;-63
2021/12/04 08:48:40;;;;;;;50.78;27.33;;;4.70;99.90;;;;;;5056059;28;20035;-63
2021/12/04 08:51:07;;;;;;;46.40;23.88;;;4.70;99.90;;;;;;5074136;28;20028;-64
2021/12/04 08:53:32;;;;;;;42.03;22.70;;;4.90;99.90;;;;;;5074213;28;20167;-64
2021/12/04 08:55:58;;;;;;;38.20;21.23;;;5.00;99.90;;;;;;5056308;28;20033;-63
2021/12/04 08:58:25;;;;;;;30.80;17.38;;;5.20;99.90;;;;;;5072097;28;20025;-63
2021/12/04 09:00:58;;;;;;;28.88;17.75;;;5.30;99.00;;;;;;5073887;28;20107;-67
2021/12/04 09:03:35;;;;;;;35.70;20.30;;;5.40;99.30;;;;;;5055840;28;20461;-64
2021/12/04 09:06:03;;;;;;;39.88;22.75;;;5.50;99.70;;;;;;5074003;28;20025;-64
2021/12/04 09:08:29;;;;;;;30.58;17.25;;;5.60;99.90;;;;;;5055533;28;20397;-64
2021/12/04 09:10:58;;;;;;;26.75;14.88;;;5.80;98.30;;;;;;5073469;28;20054;-65
2021/12/04 09:13:28;;;;;;;25.85;14.02;;;5.90;98.20;;;;;;5073282;28;20078;-65
2021/12/04 09:15:54;;;;;;;17.48;10.50;;;5.90;97.60;;;;;;5071396;28;20468;-65
2021/12/04 09:18:20;;;;;;;21.40;11.90;;;6.00;95.60;;;;;;5072505;28;20028;-64
2021/12/04 09:20:49;;;;;;;23.50;11.20;;;6.00;95.80;;;;;;5073715;28;20443;-65
2021/12/04 09:23:17;;;;;;;20.98;11.50;;;6.00;95.50;;;;;;5055687;28;20020;-65
2021/12/04 09:25:48;;;;;;;16.92;8.70;;;6.30;95.30;;;;;;5054510;28;20071;-65
2021/12/04 10:03:38;;;;;;;20.48;11.30;;;7.90;92.50;;;;;;5073121;28;20046;-65
2021/12/04 10:22:12;;;;;;;26.10;13.02;;;;;;;;;;5072593;28;20055;-65
2021/12/04 10:33:14;;;;;;;18.25;10.82;;;;;;;;;;5072474;28;20403;-65
2021/12/04 10:35:41;;;;;;;21.10;12.30;;;;;;;;;;5072543;28;20099;-65
2021/12/04 10:38:11;;;;;;;16.73;10.20;;;;;;;;;;5054193;28;20040;-67
2021/12/04 10:40:44;;;;;;;18.00;11.35;;;;;;;;;;5072350;28;20481;-66
2021/12/04 10:43:23;;;;;;;18.90;10.98;;;11.60;80.30;;;;;;5054435;28;20074;-66
2021/12/04 10:45:54;;;;;;;23.88;10.13;;;11.70;82.00;;;;;;5054578;28;20028;-67
2021/12/04 10:48:25;;;;;;;22.60;11.73;;;11.20;79.80;;;;;;5072271;28;20032;-69
2021/12/04 10:53:34;;;;;;;22.17;12.23;;;;;;;;;;5071037;28;20634;-66
2021/12/04 11:04:10;;;;;;;22.35;12.55;;;;;;;;;;5072211;28;20378;-66
2021/12/04 11:34:54;;;;;;;22.08;13.02;;;;;;;;;;5075721;28;20093;-67
2021/12/04 11:43:13;;;;;;;32.28;16.23;;;;;;;;;;5075598;28;20127;-66
2021/12/04 11:46:02;;;;;;;37.75;18.48;;;;;;;;;;5075466;28;20024;-65
2021/12/04 11:48:30;;;;;;;27.73;14.68;;;;;;;;;;5075167;28;20525;-66
2021/12/04 11:50:56;;;;;;;35.83;17.25;;;;;;;;;;5075240;28;20063;-65
2021/12/04 11:53:22;;;;;;;37.13;18.63;;;;;;;;;;5057511;28;20021;-65
2021/12/04 11:55:51;;;;;;;29.88;16.60;;;;;;;;;;5075501;28;20103;-65
2021/12/04 11:58:23;;;;;;;46.65;20.42;;;;;;;;;;5075279;28;20021;-65
2021/12/04 12:00:50;;;;;;;37.58;19.60;;;;;;;;;;5075164;28;20024;-66
2021/12/04 12:03:21;;;;;;;43.28;22.42;;;;;;;;;;5075267;28;20021;-66
2021/12/04 12:06:01;;;;;;;46.47;24.47;;;;;;;;;;5075028;28;20101;-65
2021/12/04 12:08:30;;;;;;;42.90;23.30;;;;;;;;;;5075214;28;20025;-65
2021/12/04 12:10:59;;;;;;;61.97;27.60;;;;;;;;;;5075158;28;20577;-64
2021/12/04 12:13:28;;;;;;;46.00;20.08;;;;;;;;;;5075110;28;20407;-65
2021/12/04 12:15:59;;;;;;;40.83;22.17;;;;;;;;;;5075107;28;20024;-65
2021/12/04 12:18:25;;;;;;;44.50;24.90;;;;;;;;;;5056888;28;20464;-64
2021/12/04 12:20:57;;;;;;;43.15;23.55;;;;;;;;;;5073826;28;20024;-65
2021/12/04 12:23:28;;;;;;;36.92;20.65;;;;;;;;;;5074940;28;20013;-64
2021/12/04 12:34:14;;;;;;;54.55;27.00;;;;;;;;;;5074843;28;20036;-64
2021/12/04 12:36:48;;;;;;;47.97;22.83;;;;;;;;;;5074917;28;20369;-66
2021/12/04 12:39:21;;;;;;;42.08;22.75;;;;;;;;;;5074104;28;20465;-65
2021/12/04 12:42:00;;;;;;;42.00;23.25;;;;;;;;;;5056693;28;20461;-66
2021/12/04 12:44:28;;;;;;;39.33;20.88;;;;;;;;;;5074033;28;20540;-64
2021/12/04 12:46:59;;;;;;;29.98;18.77;;;;;;;;;;5074291;28;20021;-64
2021/12/04 12:49:34;;;;;;;41.28;21.58;;;;;;;;;;5073075;28;20028;-65
2021/12/04 12:52:07;;;;;;;34.90;19.65;;;;;;;;;;5055526;28;20080;-66
2021/12/04 12:54:39;;;;;;;39.05;20.30;;;;;;;;;;5073294;28;20052;-65
2021/12/04 12:57:06;;;;;;;32.85;18.00;;;;;;;;;;5073871;28;20100;-65
2021/12/04 13:11:41;;;;;;;39.90;22.20;;;;;;;;;;5073936;28;20106;-65
2021/12/04 13:13:30;;;;;;;34.65;20.95;;;;;;;;;;5073815;28;20074;-65
2021/12/04 13:16:03;;;;;;;41.70;23.80;;;;;;;;;;5074042;28;20020;-65
2021/12/04 13:18:31;;;;;;;43.22;23.35;;;;;;;;;;5073907;28;20024;-64
2021/12/04 13:20:59;;;;;;;37.55;20.95;;;;;;;;;;5073790;28;20017;-66
2021/12/04 13:23:26;;;;;;;49.97;23.80;;;;;;;;;;5073557;28;20389;-65
2021/12/04 13:25:53;;;;;;;30.83;19.08;;;;;;;;;;5072521;28;20020;-64
2021/12/04 13:28:21;;;;;;;44.58;22.45;;;;;;;;;;5073496;28;20094;-64
2021/12/04 13:30:47;;;;;;;44.47;22.55;;;;;;;;;;5073676;28;20085;-65
2021/12/04 13:33:14;;;;;;;36.20;20.35;;;;;;;;;;5055351;28;20408;-66
2021/12/04 13:35:45;;;;;;;33.17;19.80;;;;;;;;;;5073606;28;20104;-65
2021/12/04 13:38:11;;;;;;;44.15;24.42;;;;;;;;;;5055736;28;20484;-64
2021/12/04 13:40:38;;;;;;;43.63;23.52;;;;;;;;;;5052941;28;20119;-65
2021/12/04 13:43:08;;;;;;;56.03;31.85;;;;;;;;;;5072851;28;20134;-65
2021/12/04 13:45:34;;;;;;;54.00;32.08;;;;;;;;;;5055125;28;20048;-65
2021/12/04 13:48:00;;;;;;;50.20;30.23;;;;;;;;;;5073188;28;20412;-64
2021/12/04 13:52:55;;;;;;;63.30;37.85;;;;;;;;;;5072526;28;20044;-65
2021/12/04 13:55:22;;;;;;;46.20;24.02;;;;;;;;;;5073148;28;20369;-65
2021/12/04 13:57:48;;;;;;;39.92;23.50;;;;;;;;;;5073334;28;20023;-64
2021/12/04 14:00:16;;;;;;;44.88;24.10;;;;;;;;;;5073122;28;20030;-65
2021/12/04 14:02:42;;;;;;;45.22;22.88;;;;;;;;;;5055006;28;20071;-64
2021/12/04 14:05:14;;;;;;;39.53;22.27;;;;;;;;;;5054794;28;20123;-64
2021/12/04 14:07:52;;;;;;;47.15;24.67;;;;;;;;;;5073097;28;20021;-64
2021/12/04 14:10:30;;;;;;;47.72;26.00;;;;;;;;;;5073077;28;20028;-65
2021/12/04 14:12:57;;;;;;;59.40;30.73;;;;;;;;;;5072672;28;20067;-68
2021/12/04 14:15:24;;;;;;;55.80;32.13;;;;;;;;;;5072588;28;20036;-65
2021/12/04 14:17:52;;;;;;;61.60;32.85;;;;;;;;;;5054687;28;20442;-67
2021/12/04 14:20:22;;;;;;;70.60;36.40;;;;;;;;;;5072551;28;20029;-64
2021/12/04 14:22:49;;;;;;;45.78;25.92;;;;;;;;;;5073005;28;20021;-66
2021/12/04 14:25:15;;;;;;;60.22;28.70;;;;;;;;;;5072245;28;20099;-65
2021/12/04 14:27:42;;;;;;;75.47;32.67;;;;;;;;;;5054149;28;20346;-65
2021/12/04 14:30:13;;;;;;;72.07;36.10;;;;;;;;;;5072557;28;20082;-64
2021/12/04 14:32:45;;;;;;;57.00;30.27;;;;;;;;;;5072701;28;20024;-66
2021/12/04 14:35:14;;;;;;;;;;;;;;;;;;5073256;28;20035;-67
2021/12/04 14:37:41;;;;;;;51.63;29.63;;;;;;;;;;5072800;28;19915;-66
2021/12/04 14:40:08;;;;;;;63.60;30.80;;;;;;;;;;5072693;28;20027;-65
2021/12/04 14:42:36;;;;;;;69.78;34.65;;;;;;;;;;5073362;28;20493;-66
2021/12/04 14:45:05;;;;;;;89.32;42.75;;;;;;;;;;5074774;28;20016;-65
2021/12/04 14:47:33;;;;;;;154.95;61.17;;;;;;;;;;5077137;28;20024;-65
2021/12/04 14:50:00;;;;;;;117.43;50.08;;;;;;;;;;5076757;28;20074;-66
2021/12/04 14:52:28;;;;;;;107.50;46.13;;;;;;;;;;5058534;28;20179;-66
2021/12/04 14:54:54;;;;;;;89.72;42.92;;;;;;;;;;5058739;28;20028;-65
2021/12/04 14:57:22;;;;;;;72.53;39.33;;;;;;;;;;5076769;28;20420;-64
2021/12/04 15:00:09;;;;;;;99.93;47.10;;;;;;;;;;5076606;28;20039;-65
2021/12/04 15:02:35;;;;;;;84.35;43.38;;;;;;;;;;5058454;28;20178;-66
2021/12/04 15:05:03;;;;;;;99.28;46.83;;;;;;;;;;5058458;28;20032;-65
2021/12/04 15:07:32;;;;;;;104.38;53.15;;;;;;;;;;5076521;28;20468;-66
2021/12/04 15:09:58;;;;;;;109.18;56.70;;;;;;;;;;5058299;28;20056;-65
2021/12/04 15:12:35;;;;;;;106.10;57.63;;;;;;;;;;5076411;28;20024;-65
2021/12/04 15:15:05;;;;;;;115.88;59.88;;;;;;;;;;5076676;28;20056;-65
2021/12/04 15:17:33;;;;;;;127.57;66.57;;;;;;;;;;5076330;28;20028;-67
2021/12/04 15:20:02;;;;;;;133.80;69.35;;;;;;;;;;5076227;28;20025;-66
2021/12/04 15:22:38;;;;;;;146.75;76.18;;;;;;;;;;5076480;28;20078;-66
2021/12/04 15:25:06;;;;;;;140.25;77.05;;;;;;;;;;5076199;28;20054;-65
2021/12/04 15:27:37;;;;;;;135.00;71.13;;;;;;;;;;5058179;28;20111;-65
2021/12/04 15:30:05;;;;;;;147.25;77.45;;;;;;;;;;5075735;28;20035;-65
2021/12/04 15:32:34;;;;;;;147.75;80.00;;;;;;;;;;5075715;28;20488;-66
2021/12/04 15:35:15;;;;;;;146.85;77.05;;;;;;;;;;5075941;28;20106;-65
2021/12/04 15:38:33;;;;;;;142.90;77.30;;;;;;;;;;5057903;28;20028;-66
2021/12/04 15:40:38;;;;;;;134.77;71.72;;;;;;;;;;5064600;28;20047;-65
2021/12/04 15:43:53;;;;;;;;;;;;;;;;;;5076269;28;20023;-65
2021/12/04 15:46:07;;;;;;;;;;;;;;;;;;5072666;28;20003;-65
2021/12/04 15:48:54;;;;;;;138.18;71.45;;;;;;;;;;5075708;28;19904;-66
2021/12/04 15:53:56;;;;;;;142.85;75.70;;;;;;;;;;5075654;28;20028;-66
2021/12/04 15:56:43;;;;;;;169.25;81.78;;;;;;;;;;5075381;28;20023;-66
2021/12/04 15:59:12;;;;;;;155.48;75.47;;;;;;;;;;5075522;28;20028;-65
2021/12/04 16:01:38;;;;;;;138.55;69.93;;;;;;;;;;5075471;28;20104;-66
2021/12/04 16:04:18;;;;;;;128.20;62.88;;;;;;;;;;5057433;28;20079;-66
2021/12/04 16:06:44;;;;;;;128.00;60.70;;;;;;;;;;5075683;28;20031;-64
2021/12/04 16:09:12;;;;;;;112.18;55.92;;;;;;;;;;5075286;28;20412;-65
2021/12/04 16:11:40;;;;;;;101.10;53.88;;;;;;;;;;5075289;28;20028;-67
2021/12/04 16:14:07;;;;;;;121.13;58.17;;;;;;;;;;5074939;28;20485;-66
2021/12/04 16:16:38;;;;;;;108.85;55.17;;;;;;;;;;5057165;28;20110;-66
2021/12/04 16:19:04;;;;;;;114.20;56.15;;;;;;;;;;5075193;28;20032;-67
2021/12/04 16:21:34;;;;;;;116.00;55.17;;;;;;;;;;5075103;28;20024;-65
2021/12/04 16:24:00;;;;;;;111.57;53.13;;;;;;;;;;5057037;28;20024;-66
2021/12/04 16:26:29;;;;;;;114.35;56.05;;;;;;;;;;5074998;28;20036;-68
2021/12/04 16:36:44;;;;;;;212.88;90.15;;;;;;;;;;5074864;28;20036;-66
2021/12/04 16:39:12;;;;;;;286.42;108.97;;;;;;;;;;5074802;28;20021;-66
2021/12/04 16:41:40;;;;;;;312.50;118.97;;;;;;;;;;5056771;28;20473;-66
2021/12/04 16:44:09;;;;;;;301.55;111.00;;;;;;;;;;5074561;28;20033;-67
2021/12/04 16:46:38;;;;;;;270.35;108.78;;;;;;;;;;5074571;28;20025;-65
2021/12/04 16:49:06;;;;;;;325.77;124.85;;;;;;;;;;5074476;28;20060;-65
2021/12/04 16:59:53;;;;;;;269.45;116.65;;;;;;;;;;5056709;28;20036;-66
2021/12/04 17:02:19;;;;;;;;;;;;;;;;;;5074770;28;20028;-66
2021/12/04 17:04:46;;;;;;;221.35;102.32;;;;;;;;;;5074197;28;19939;-66
2021/12/04 17:07:13;;;;;;;205.82;91.85;;;;;;;;;;5072231;28;20067;-65
2021/12/04 17:09:39;;;;;;;197.70;93.40;;;;;;;;;;5073964;28;20033;-65
2021/12/04 17:12:06;;;;;;;209.48;96.00;;;;;;;;;;5074056;28;20477;-64
2021/12/04 17:14:33;;;;;;;179.45;87.45;;;;;;;;;;5055979;28;20035;-66